Time;durP1;ratioP1;P1;durP2;ratioP2;P2;SDS_P1;SDS_P2;PMS_P1;PMS_P2;Temp;Humidity;BMP_temperature;BMP_pressure;BME280_temperature;BME280_humidity;BME280_pressure;Samples;Min_cycle;Max_cycle;Signal;HPM_P1;HPM_P2
2023/06/29 00:01:47;;;;;;;16.77;12.83;;;27.10;48.00;;;;;;5067739;28;20430;-81
2023/06/29 00:04:18;;;;;;;13.70;12.00;;;27.10;48.00;;;;;;5080535;28;20436;-81
2023/06/29 00:06:46;;;;;;;18.10;13.77;;;27.10;48.00;;;;;;5082151;28;20507;-82
2023/06/29 00:09:14;;;;;;;14.90;12.83;;;27.00;48.00;;;;;;5066576;28;20421;-82
2023/06/29 00:11:43;;;;;;;12.03;10.80;;;27.10;48.20;;;;;;5070834;28;20432;-81
2023/06/29 00:14:12;;;;;;;14.40;12.30;;;27.10;47.90;;;;;;5070145;28;20458;-82
2023/06/29 00:16:40;;;;;;;14.20;12.13;;;27.10;48.00;;;;;;5077549;28;20445;-82
2023/06/29 00:19:08;;;;;;;13.07;11.50;;;27.10;48.10;;;;;;5069525;28;20447;-82
2023/06/29 00:21:36;;;;;;;14.83;11.97;;;27.00;48.00;;;;;;5074131;28;20470;-82
2023/06/29 00:24:04;;;;;;;15.23;13.10;;;27.00;48.00;;;;;;5058945;28;20498;-82
2023/06/29 00:26:33;;;;;;;14.27;12.60;;;27.00;48.00;;;;;;5064625;28;20421;-81
2023/06/29 00:29:02;;;;;;;14.63;13.00;;;27.00;48.00;;;;;;5067591;28;20454;-82
2023/06/29 00:31:31;;;;;;;16.30;13.00;;;27.00;48.00;;;;;;5067594;28;20451;-82
2023/06/29 00:33:59;;;;;;;16.47;13.80;;;27.00;48.10;;;;;;5074076;28;20443;-82
2023/06/29 00:36:27;;;;;;;16.40;14.40;;;27.00;48.20;;;;;;5075159;28;20467;-82
2023/06/29 00:38:55;;;;;;;14.07;12.57;;;27.00;48.00;;;;;;5074871;28;20443;-82
2023/06/29 00:41:24;;;;;;;17.07;13.63;;;27.00;48.10;;;;;;5066902;28;20417;-82
2023/06/29 00:43:52;;;;;;;14.97;13.37;;;27.00;48.10;;;;;;5064446;28;20474;-82
2023/06/29 00:46:21;;;;;;;15.37;13.30;;;27.00;48.10;;;;;;5067927;28;20454;-82
2023/06/29 00:48:50;;;;;;;17.23;13.83;;;27.00;48.20;;;;;;5071563;28;20465;-82
2023/06/29 00:51:21;;;;;;;18.20;13.60;;;27.00;48.00;;;;;;5068093;28;20421;-82
2023/06/29 00:53:52;;;;;;;15.40;13.20;;;27.00;48.10;;;;;;5072701;28;20417;-82
2023/06/29 00:56:21;;;;;;;15.90;12.97;;;26.90;48.00;;;;;;5074424;28;20425;-82
2023/06/29 00:58:49;;;;;;;15.80;14.10;;;27.00;48.10;;;;;;5068103;28;20458;-81
2023/06/29 01:01:17;;;;;;;17.00;13.97;;;27.00;48.20;;;;;;5073609;28;20412;-82
2023/06/29 01:03:47;;;;;;;17.80;14.30;;;27.00;48.00;;;;;;5078426;28;20485;-82
2023/06/29 01:06:18;;;;;;;16.17;14.10;;;27.00;47.90;;;;;;5067539;28;20453;-82
2023/06/29 01:08:48;;;;;;;17.47;14.60;;;26.90;48.00;;;;;;5068724;28;20417;-82
2023/06/29 01:11:16;;;;;;;16.67;14.20;;;27.00;48.00;;;;;;5074787;28;20414;-82
2023/06/29 01:13:45;;;;;;;15.63;13.93;;;26.90;48.00;;;;;;5076749;28;20413;-82
2023/06/29 01:16:13;;;;;;;14.90;13.33;;;26.90;47.90;;;;;;5060265;28;20463;-81
2023/06/29 01:18:43;;;;;;;15.60;13.10;;;26.90;48.10;;;;;;5065700;28;20472;-82
2023/06/29 01:21:12;;;;;;;14.93;13.07;;;26.90;48.10;;;;;;5071354;28;20433;-82
2023/06/29 01:23:40;;;;;;;15.10;13.50;;;26.90;48.00;;;;;;5071785;28;20462;-82
2023/06/29 01:26:11;;;;;;;17.10;14.20;;;26.90;48.00;;;;;;5067464;28;20470;-82
2023/06/29 01:28:39;;;;;;;17.20;14.23;;;26.90;48.10;;;;;;5061770;28;20429;-81
2023/06/29 01:31:07;;;;;;;14.33;12.83;;;26.90;47.90;;;;;;5060050;28;20439;-82
2023/06/29 01:33:35;;;;;;;15.37;13.00;;;26.90;48.20;;;;;;5075306;28;20457;-82
2023/06/29 01:36:06;;;;;;;16.17;13.70;;;26.90;48.40;;;;;;5067301;28;20437;-82
2023/06/29 01:38:37;;;;;;;15.70;13.33;;;26.90;48.20;;;;;;5073740;28;20441;-81
2023/06/29 01:41:06;;;;;;;15.80;13.47;;;26.90;48.10;;;;;;5066128;28;20483;-82
2023/06/29 01:43:35;;;;;;;14.40;12.90;;;26.90;48.20;;;;;;5064358;28;20433;-82
2023/06/29 01:46:04;;;;;;;15.80;13.60;;;26.80;48.00;;;;;;5066071;28;20449;-82
2023/06/29 01:48:32;;;;;;;14.03;12.53;;;26.90;48.20;;;;;;5065136;28;20442;-82
2023/06/29 01:51:00;;;;;;;14.97;12.93;;;26.90;48.00;;;;;;5065585;28;20447;-82
2023/06/29 01:53:28;;;;;;;15.80;13.77;;;26.90;48.20;;;;;;5066508;28;20442;-85
2023/06/29 01:55:59;;;;;;;14.83;13.23;;;26.90;48.10;;;;;;5073266;28;20437;-82
2023/06/29 01:58:27;;;;;;;14.63;13.13;;;26.80;48.10;;;;;;5066044;28;20414;-82
2023/06/29 02:00:57;;;;;;;15.60;13.57;;;26.80;48.10;;;;;;5066540;28;20454;-82
2023/06/29 02:03:25;;;;;;;14.47;12.53;;;26.80;48.20;;;;;;5066438;28;20788;-82
2023/06/29 02:05:53;;;;;;;16.33;13.70;;;26.80;48.20;;;;;;5067065;28;20463;-82
2023/06/29 02:08:21;;;;;;;14.60;12.30;;;26.80;48.20;;;;;;5072300;28;20413;-82
2023/06/29 02:10:49;;;;;;;16.23;13.10;;;26.80;48.30;;;;;;5074287;28;20459;-82
2023/06/29 02:13:17;;;;;;;15.47;12.93;;;26.80;48.20;;;;;;5079483;28;20420;-82
2023/06/29 02:15:45;;;;;;;14.80;11.83;;;26.80;48.30;;;;;;5064252;28;20429;-82
2023/06/29 02:18:14;;;;;;;13.70;11.80;;;26.80;48.10;;;;;;5067420;28;20430;-82
2023/06/29 02:20:43;;;;;;;12.90;11.60;;;26.80;48.20;;;;;;5072552;28;20424;-82
2023/06/29 02:23:11;;;;;;;14.40;12.50;;;26.80;48.30;;;;;;5069115;28;20416;-82
2023/06/29 02:25:39;;;;;;;13.80;11.93;;;26.80;48.20;;;;;;5068729;28;20478;-82
2023/06/29 02:28:07;;;;;;;13.33;12.03;;;26.80;48.30;;;;;;5069897;28;20425;-82
2023/06/29 02:30:35;;;;;;;13.00;11.70;;;26.80;48.20;;;;;;5065307;28;20496;-82
2023/06/29 02:33:04;;;;;;;14.33;12.40;;;26.80;48.10;;;;;;5073422;28;20473;-82
2023/06/29 02:35:33;;;;;;;15.00;12.00;;;26.80;48.20;;;;;;5062216;28;20466;-82
2023/06/29 02:38:01;;;;;;;15.23;11.70;;;26.70;48.20;;;;;;5073908;28;20416;-82
2023/06/29 02:40:29;;;;;;;13.87;11.00;;;26.80;48.40;;;;;;5066017;28;20435;-83
2023/06/29 02:42:57;;;;;;;13.20;11.60;;;26.80;48.10;;;;;;5074077;28;20491;-82
2023/06/29 02:45:25;;;;;;;13.43;11.57;;;26.70;48.30;;;;;;5071074;28;20477;-82
2023/06/29 02:47:53;;;;;;;12.90;11.00;;;26.80;48.20;;;;;;5070658;28;20413;-82
2023/06/29 02:50:21;;;;;;;12.43;11.13;;;26.80;48.20;;;;;;5083181;28;20409;-82
2023/06/29 02:52:50;;;;;;;12.87;11.00;;;26.80;48.40;;;;;;5062255;28;20436;-82
2023/06/29 02:55:20;;;;;;;13.10;11.30;;;26.80;48.30;;;;;;5064017;28;20488;-82
2023/06/29 02:57:48;;;;;;;15.20;11.50;;;26.80;48.30;;;;;;5071342;28;20417;-82
2023/06/29 03:00:17;;;;;;;12.50;11.20;;;26.70;48.40;;;;;;5070715;28;20438;-81
2023/06/29 03:02:45;;;;;;;12.57;10.60;;;26.70;48.50;;;;;;5055316;28;20975;-82
2023/06/29 03:05:13;;;;;;;12.83;10.77;;;26.70;48.40;;;;;;5062898;28;20483;-82
2023/06/29 03:07:41;;;;;;;13.13;11.40;;;26.70;48.60;;;;;;5072303;28;20469;-81
2023/06/29 03:10:11;;;;;;;11.97;10.67;;;26.70;48.50;;;;;;5063809;28;20424;-82
2023/06/29 03:12:39;;;;;;;11.93;10.60;;;26.70;48.40;;;;;;5077534;28;20437;-81
2023/06/29 03:15:07;;;;;;;13.83;10.27;;;26.70;48.50;;;;;;5068032;28;20495;-81
2023/06/29 03:17:35;;;;;;;11.63;10.30;;;26.70;48.40;;;;;;5074243;28;20817;-82
2023/06/29 03:20:04;;;;;;;12.50;10.33;;;26.70;48.50;;;;;;5066468;28;20427;-82
2023/06/29 03:22:33;;;;;;;11.93;10.60;;;26.70;48.60;;;;;;5066018;28;20504;-83
2023/06/29 03:25:01;;;;;;;11.70;10.50;;;26.70;48.50;;;;;;5066847;28;20506;-83
2023/06/29 03:27:31;;;;;;;13.70;10.50;;;26.70;48.40;;;;;;5069430;28;20449;-83
2023/06/29 03:30:00;;;;;;;14.63;10.73;;;26.70;48.50;;;;;;5076795;28;20404;-83
2023/06/29 03:32:27;;;;;;;11.23;10.10;;;26.70;48.60;;;;;;5068131;28;20434;-83
2023/06/29 03:34:55;;;;;;;10.83;9.50;;;26.70;48.50;;;;;;5067456;28;20442;-83
2023/06/29 03:37:23;;;;;;;10.40;9.40;;;26.70;48.60;;;;;;5072542;28;20441;-83
2023/06/29 03:39:52;;;;;;;10.97;9.97;;;26.70;48.60;;;;;;5072226;28;20430;-83
2023/06/29 03:42:20;;;;;;;10.80;9.73;;;26.60;48.50;;;;;;5062430;28;20433;-83
2023/06/29 03:44:49;;;;;;;12.93;10.40;;;26.70;48.70;;;;;;5070727;28;20440;-83
2023/06/29 03:47:17;;;;;;;10.70;9.30;;;26.70;48.60;;;;;;5059800;28;20446;-83
2023/06/29 03:49:47;;;;;;;11.20;9.37;;;26.70;48.60;;;;;;5068485;28;20434;-83
2023/06/29 03:52:15;;;;;;;11.73;9.80;;;26.60;48.60;;;;;;5060795;28;20423;-83
2023/06/29 03:54:43;;;;;;;10.80;9.20;;;26.60;48.70;;;;;;5076206;28;20465;-83
2023/06/29 03:57:11;;;;;;;11.43;9.90;;;26.60;48.60;;;;;;5068510;28;20448;-83
2023/06/29 03:59:50;;;;;;;10.73;9.67;;;26.60;48.70;;;;;;5075414;28;20484;-82
2023/06/29 04:02:26;;;;;;;10.60;9.50;;;26.60;48.80;;;;;;5066879;28;20417;-82
2023/06/29 04:04:54;;;;;;;10.60;9.50;;;26.70;48.80;;;;;;5076286;28;20478;-83
2023/06/29 04:07:22;;;;;;;10.60;9.10;;;26.70;48.80;;;;;;5067868;28;20425;-83
2023/06/29 04:09:50;;;;;;;10.90;9.67;;;26.70;48.70;;;;;;5068119;28;20409;-83
2023/06/29 04:12:18;;;;;;;10.60;9.33;;;26.70;48.90;;;;;;5068727;28;20504;-82
2023/06/29 04:14:46;;;;;;;9.17;8.27;;;26.70;48.70;;;;;;5067795;28;20445;-83
2023/06/29 04:17:14;;;;;;;9.50;8.57;;;26.60;48.70;;;;;;5059152;28;20464;-83
2023/06/29 04:19:43;;;;;;;10.90;9.43;;;26.60;48.80;;;;;;5072230;28;20421;-83
2023/06/29 04:22:11;;;;;;;12.77;9.07;;;26.70;49.00;;;;;;5066145;28;20444;-83
2023/06/29 04:24:39;;;;;;;10.80;8.07;;;26.70;49.00;;;;;;5066169;28;20437;-83
2023/06/29 04:27:08;;;;;;;10.03;8.60;;;26.70;49.00;;;;;;5068391;28;20454;-83
2023/06/29 04:29:36;;;;;;;12.00;9.20;;;26.70;49.00;;;;;;5071958;28;20508;-83
2023/06/29 04:32:04;;;;;;;11.27;9.37;;;26.70;49.00;;;;;;5067166;28;20442;-83
2023/06/29 04:34:33;;;;;;;9.47;8.47;;;26.70;49.10;;;;;;5067976;28;20474;-82
2023/06/29 04:37:04;;;;;;;9.07;8.13;;;26.70;49.00;;;;;;5059368;28;20429;-83
2023/06/29 04:39:32;;;;;;;12.00;9.50;;;26.70;49.10;;;;;;5067127;28;20446;-83
2023/06/29 04:42:05;;;;;;;9.97;8.60;;;26.70;49.10;;;;;;5066358;28;20454;-82
2023/06/29 04:44:33;;;;;;;11.50;8.53;;;26.70;49.10;;;;;;5072504;28;20440;-83
2023/06/29 04:47:02;;;;;;;11.67;9.33;;;26.70;49.10;;;;;;5068777;28;20484;-82
2023/06/29 04:49:36;;;;;;;9.17;8.17;;;26.70;49.10;;;;;;5066902;28;20839;-82
2023/06/29 04:52:13;;;;;;;9.87;8.83;;;26.70;49.20;;;;;;5062168;28;20518;-82
2023/06/29 04:54:44;;;;;;;12.40;8.33;;;26.70;49.20;;;;;;5064992;28;20445;-82
2023/06/29 04:57:13;;;;;;;9.47;8.37;;;26.70;49.20;;;;;;5074645;28;20424;-81
2023/06/29 04:59:41;;;;;;;9.60;8.60;;;26.70;49.10;;;;;;5067522;28;20421;-82
2023/06/29 05:02:09;;;;;;;10.03;8.80;;;26.70;49.10;;;;;;5071565;28;20428;-82
2023/06/29 05:04:37;;;;;;;8.50;7.67;;;26.70;49.20;;;;;;5067991;28;20441;-82
2023/06/29 05:07:05;;;;;;;11.07;8.37;;;26.70;49.00;;;;;;5067928;28;20454;-82
2023/06/29 05:09:36;;;;;;;11.47;8.63;;;26.70;49.00;;;;;;5079173;28;20441;-82
2023/06/29 05:12:04;;;;;;;8.43;7.63;;;26.70;49.10;;;;;;5061999;28;20456;-82
2023/06/29 05:14:32;;;;;;;10.10;8.97;;;26.70;49.10;;;;;;5067813;28;20456;-82
2023/06/29 05:17:00;;;;;;;9.23;8.03;;;26.70;48.70;;;;;;5065756;28;20439;-83
2023/06/29 05:19:28;;;;;;;10.00;8.20;;;26.70;49.00;;;;;;5072236;28;20421;-83
2023/06/29 05:21:57;;;;;;;10.53;9.00;;;26.80;49.20;;;;;;5075238;28;20418;-83
2023/06/29 05:24:28;;;;;;;10.63;8.67;;;26.70;49.10;;;;;;5067423;28;20437;-82
2023/06/29 05:26:58;;;;;;;15.43;8.80;;;26.80;49.10;;;;;;5074387;28;20448;-82
2023/06/29 05:29:26;;;;;;;12.30;8.63;;;26.80;49.10;;;;;;5064135;28;20429;-82
2023/06/29 05:31:54;;;;;;;9.53;8.50;;;26.80;49.10;;;;;;5066858;28;20477;-82
2023/06/29 05:34:22;;;;;;;10.00;8.90;;;26.80;49.20;;;;;;5058567;28;20467;-82
2023/06/29 05:36:51;;;;;;;10.20;8.23;;;26.80;49.10;;;;;;5065827;28;20410;-82
2023/06/29 05:39:20;;;;;;;9.67;8.33;;;26.80;49.10;;;;;;5074104;28;20413;-82
2023/06/29 05:41:48;;;;;;;12.13;8.93;;;26.80;49.10;;;;;;5065764;28;20538;-82
2023/06/29 05:44:18;;;;;;;10.10;8.63;;;26.80;49.20;;;;;;5074273;28;20458;-82
2023/06/29 05:46:46;;;;;;;13.10;8.30;;;26.80;49.20;;;;;;5061311;28;20437;-82
2023/06/29 05:49:14;;;;;;;12.23;8.27;;;26.90;49.30;;;;;;5069031;28;20482;-82
2023/06/29 05:51:43;;;;;;;9.30;7.97;;;26.90;49.10;;;;;;5071380;28;20421;-82
2023/06/29 05:54:11;;;;;;;10.43;8.73;;;26.90;49.20;;;;;;5061761;28;20589;-82
2023/06/29 05:56:39;;;;;;;11.53;8.90;;;26.90;49.10;;;;;;5066202;28;20433;-82
2023/06/29 05:59:07;;;;;;;10.43;8.60;;;26.90;49.10;;;;;;5066656;28;20465;-82
2023/06/29 06:01:38;;;;;;;11.80;8.13;;;27.00;49.20;;;;;;5065969;28;20421;-82
2023/06/29 06:04:06;;;;;;;10.63;8.20;;;27.00;49.10;;;;;;5073619;28;20440;-82
2023/06/29 06:06:34;;;;;;;11.30;8.43;;;27.00;49.00;;;;;;5067790;28;20549;-83
2023/06/29 06:09:03;;;;;;;11.20;9.00;;;27.00;49.10;;;;;;5068537;28;20455;-83
2023/06/29 06:11:31;;;;;;;9.50;7.70;;;27.00;49.00;;;;;;5073741;28;20424;-82
2023/06/29 06:13:59;;;;;;;10.50;8.10;;;27.00;49.00;;;;;;5065856;28;20793;-82
2023/06/29 06:16:27;;;;;;;15.33;9.10;;;27.00;49.10;;;;;;5065467;28;20428;-82
2023/06/29 06:18:57;;;;;;;11.00;8.20;;;27.00;48.90;;;;;;5065759;28;20422;-82
2023/06/29 06:21:25;;;;;;;10.07;7.83;;;27.00;48.80;;;;;;5058616;28;20414;-82
2023/06/29 06:23:54;;;;;;;12.20;7.93;;;27.10;48.80;;;;;;5062020;28;20413;-82
2023/06/29 06:26:22;;;;;;;9.83;7.90;;;27.10;48.70;;;;;;5073233;28;20462;-82
2023/06/29 06:28:51;;;;;;;9.17;8.27;;;27.10;48.70;;;;;;5066240;28;20474;-82
2023/06/29 06:31:19;;;;;;;9.03;7.57;;;27.10;48.70;;;;;;5073948;28;20433;-82
2023/06/29 06:34:02;;;;;;;10.27;7.67;;;27.10;48.70;;;;;;5073902;28;20445;-82
2023/06/29 06:36:32;;;;;;;11.10;7.97;;;27.20;48.80;;;;;;5066104;28;20449;-82
2023/06/29 06:39:02;;;;;;;9.93;8.20;;;27.10;48.80;;;;;;5072767;28;20513;-83
2023/06/29 06:41:30;;;;;;;11.23;8.23;;;27.20;48.90;;;;;;5064542;28;20447;-82
2023/06/29 06:43:59;;;;;;;10.20;7.80;;;27.20;48.90;;;;;;5064368;28;20417;-82
2023/06/29 06:46:27;;;;;;;10.73;8.20;;;27.20;48.90;;;;;;5062437;28;20459;-83
2023/06/29 06:48:55;;;;;;;12.30;7.70;;;27.20;48.80;;;;;;5071704;28;20450;-82
2023/06/29 06:51:27;;;;;;;9.80;7.80;;;27.30;48.80;;;;;;5069298;28;20416;-82
2023/06/29 06:53:56;;;;;;;9.43;7.70;;;27.30;48.80;;;;;;5054453;28;20466;-83
2023/06/29 06:56:24;;;;;;;10.53;7.10;;;27.30;48.70;;;;;;5061732;28;20469;-83
2023/06/29 06:58:52;;;;;;;8.27;7.47;;;27.40;48.70;;;;;;5064277;28;20429;-82
2023/06/29 07:01:21;;;;;;;9.70;8.03;;;27.40;48.70;;;;;;5056193;28;20432;-82
2023/06/29 07:03:51;;;;;;;10.67;7.40;;;27.40;48.60;;;;;;5062563;28;20866;-82
2023/06/29 07:06:20;;;;;;;12.03;7.80;;;27.50;48.70;;;;;;5064117;28;20441;-81
2023/06/29 07:08:49;;;;;;;8.83;7.93;;;27.50;48.70;;;;;;5063484;28;20425;-81
2023/06/29 07:11:18;;;;;;;9.70;7.43;;;27.50;48.60;;;;;;5054615;28;20461;-82
2023/06/29 07:13:47;;;;;;;10.57;7.50;;;27.60;48.70;;;;;;5057233;28;20452;-82
2023/06/29 07:16:15;;;;;;;8.47;7.63;;;27.60;48.70;;;;;;5057809;28;20463;-82
2023/06/29 07:19:02;;;;;;;9.07;7.40;;;27.60;48.70;;;;;;5058613;28;20437;-82
2023/06/29 07:21:50;;;;;;;8.93;7.30;;;27.70;48.70;;;;;;5052583;28;20412;-82
2023/06/29 07:24:22;;;;;;;8.17;6.90;;;27.70;48.70;;;;;;5050539;28;20472;-82
2023/06/29 07:26:51;;;;;;;10.43;7.57;;;27.70;48.60;;;;;;5048533;28;20481;-81
2023/06/29 07:29:19;;;;;;;10.10;7.33;;;27.70;48.60;;;;;;5052141;28;20455;-81
2023/06/29 07:31:47;;;;;;;9.87;7.03;;;27.70;48.60;;;;;;5057214;28;20967;-83
2023/06/29 07:34:15;;;;;;;7.83;6.93;;;27.80;48.70;;;;;;5056217;28;20467;-81
2023/06/29 07:36:43;;;;;;;11.57;7.70;;;27.80;48.60;;;;;;5057733;28;20417;-81
2023/06/29 07:39:11;;;;;;;14.63;7.60;;;27.80;48.70;;;;;;5056284;28;20429;-79
2023/06/29 07:41:41;;;;;;;11.27;8.03;;;27.90;48.80;;;;;;5068300;28;20442;-79
2023/06/29 07:44:09;;;;;;;11.43;7.50;;;27.90;49.40;;;;;;5056009;28;20429;-81
2023/06/29 07:46:37;;;;;;;8.07;6.83;;;27.90;48.70;;;;;;5056834;28;20470;-83
2023/06/29 07:49:06;;;;;;;10.40;7.10;;;27.90;48.70;;;;;;5056965;28;20425;-82
2023/06/29 07:51:34;;;;;;;11.20;7.23;;;27.90;48.80;;;;;;5052596;28;20477;-84
2023/06/29 07:54:04;;;;;;;8.10;6.43;;;27.90;48.70;;;;;;5054850;28;20421;-84
2023/06/29 07:56:33;;;;;;;8.80;7.27;;;27.90;48.60;;;;;;5056002;28;20454;-83
2023/06/29 07:59:05;;;;;;;8.47;6.90;;;28.00;48.70;;;;;;5059463;28;20449;-84
2023/06/29 08:01:36;;;;;;;10.60;7.07;;;27.90;48.70;;;;;;5050270;28;20434;-85
2023/06/29 08:04:06;;;;;;;9.30;7.20;;;27.90;48.70;;;;;;5048182;28;20458;-85
2023/06/29 08:06:35;;;;;;;6.87;6.17;;;28.00;48.70;;;;;;5055813;28;20470;-84
2023/06/29 08:09:06;;;;;;;7.30;6.53;;;28.00;48.80;;;;;;5055243;28;20436;-83
2023/06/29 08:11:34;;;;;;;7.67;6.90;;;28.00;48.70;;;;;;5066741;28;20473;-82
2023/06/29 08:14:05;;;;;;;8.43;6.97;;;28.00;49.30;;;;;;5067205;28;20475;-84
2023/06/29 08:16:33;;;;;;;7.63;6.40;;;28.10;48.70;;;;;;5065323;28;20462;-84
2023/06/29 08:19:01;;;;;;;8.63;6.63;;;28.10;48.70;;;;;;5059877;28;20501;-83
2023/06/29 08:21:30;;;;;;;8.70;6.90;;;28.10;48.60;;;;;;5055343;28;20421;-83
2023/06/29 08:23:58;;;;;;;10.77;7.00;;;28.10;48.70;;;;;;5054323;28;20413;-82
2023/06/29 08:26:26;;;;;;;7.17;6.47;;;28.10;48.70;;;;;;5058536;28;20512;-82
2023/06/29 08:28:54;;;;;;;7.80;7.10;;;28.10;48.70;;;;;;5064635;28;20445;-82
2023/06/29 08:31:24;;;;;;;11.70;7.00;;;28.20;48.60;;;;;;5057950;28;20468;-82
2023/06/29 08:33:52;;;;;;;7.30;6.50;;;28.20;48.60;;;;;;5059423;28;20446;-82
2023/06/29 08:36:20;;;;;;;7.50;6.17;;;28.20;49.20;;;;;;5056556;28;20443;-82
2023/06/29 08:38:49;;;;;;;9.23;7.57;;;28.20;48.60;;;;;;5059002;28;20443;-82
2023/06/29 08:41:17;;;;;;;6.97;6.37;;;28.30;48.70;;;;;;5055286;28;21035;-82
2023/06/29 08:43:47;;;;;;;10.00;7.10;;;28.30;48.60;;;;;;5058731;28;20476;-82
2023/06/29 08:46:15;;;;;;;7.20;6.57;;;28.30;48.50;;;;;;5057607;28;20554;-82
2023/06/29 08:48:45;;;;;;;7.90;6.63;;;28.40;48.60;;;;;;5062020;28;20482;-82
2023/06/29 08:51:16;;;;;;;8.80;6.80;;;28.40;48.50;;;;;;5063285;28;20457;-82
2023/06/29 08:53:44;;;;;;;12.10;7.10;;;28.50;48.60;;;;;;5060795;28;20436;-82
2023/06/29 08:56:40;;;;;;;10.50;6.87;;;28.50;48.60;;;;;;5055391;28;20444;-83
2023/06/29 08:59:08;;;;;;;10.07;6.43;;;28.60;48.70;;;;;;5053407;28;20935;-83
2023/06/29 09:01:37;;;;;;;8.60;6.90;;;28.60;48.60;;;;;;5054818;28;20442;-84
2023/06/29 09:04:06;;;;;;;9.13;7.03;;;28.70;48.50;;;;;;5054229;28;20425;-84
2023/06/29 09:06:35;;;;;;;11.50;6.40;;;28.70;48.50;;;;;;5055525;28;20445;-83
2023/06/29 09:09:03;;;;;;;7.20;6.50;;;28.70;48.50;;;;;;5062362;28;20436;-84
2023/06/29 09:11:33;;;;;;;7.60;6.70;;;28.70;48.50;;;;;;5061747;28;20445;-83
2023/06/29 09:14:02;;;;;;;9.73;6.50;;;28.80;48.50;;;;;;5054316;28;20545;-84
2023/06/29 09:16:31;;;;;;;7.50;6.77;;;28.70;48.50;;;;;;5056808;28;20443;-83
2023/06/29 09:19:19;;;;;;;7.33;6.43;;;28.80;48.60;;;;;;5063278;28;20530;-84
2023/06/29 09:21:51;;;;;;;10.63;6.97;;;28.80;48.60;;;;;;5055460;28;20511;-85
2023/06/29 09:24:20;;;;;;;10.57;6.60;;;28.80;48.60;;;;;;5069477;28;20519;-85
2023/06/29 09:26:49;;;;;;;6.70;6.10;;;28.80;48.60;;;;;;5062222;28;20447;-85
2023/06/29 09:29:18;;;;;;;9.53;6.90;;;28.90;48.60;;;;;;5057233;28;20474;-85
2023/06/29 09:31:56;;;;;;;7.03;5.93;;;28.90;48.60;;;;;;5052509;28;20454;-85
2023/06/29 09:34:27;;;;;;;8.63;6.23;;;28.90;48.60;;;;;;5054825;28;20472;-86
2023/06/29 09:36:58;;;;;;;7.00;6.30;;;29.00;48.50;;;;;;5055447;28;20500;-85
2023/06/29 09:39:26;;;;;;;8.70;6.33;;;29.00;48.40;;;;;;5048867;28;20534;-85
2023/06/29 09:42:09;;;;;;;8.40;6.70;;;29.00;48.40;;;;;;5049502;28;20494;-85
2023/06/29 09:44:40;;;;;;;8.00;6.87;;;29.00;48.40;;;;;;5049961;28;20458;-84
2023/06/29 09:47:18;;;;;;;7.43;6.73;;;29.00;48.50;;;;;;5051090;28;20450;-85
2023/06/29 09:49:51;;;;;;;7.97;6.27;;;29.00;48.50;;;;;;5047926;28;20425;-85
2023/06/29 09:52:28;;;;;;;8.17;6.77;;;29.00;48.50;;;;;;5054140;28;20520;-85
2023/06/29 09:58:27;;;;;;;8.53;6.53;;;29.10;48.50;;;;;;4991220;28;20444;-85
2023/06/29 10:00:59;;;;;;;7.00;6.30;;;29.00;48.50;;;;;;5044458;28;20446;-88
2023/06/29 10:03:44;;;;;;;8.63;6.80;;;29.00;48.60;;;;;;5053800;28;20417;-87
2023/06/29 10:29:53;;;;;;;8.93;6.60;;;29.20;48.70;;;;;;4754332;30;20626;-87
2023/06/29 10:32:38;;;;;;;16.07;6.80;;;29.30;48.80;;;;;;4826489;29;20464;-86
2023/06/29 10:35:12;;;;;;;10.40;7.20;;;29.40;48.60;;;;;;4904868;29;20467;-87
2023/06/29 10:37:48;;;;;;;9.00;7.20;;;29.40;48.60;;;;;;5045625;28;20445;-85
2023/06/29 10:40:21;;;;;;;9.83;6.73;;;29.40;48.60;;;;;;5053308;28;20943;-84
2023/06/29 10:43:02;;;;;;;10.07;7.47;;;29.50;48.60;;;;;;5052737;28;20455;-83
2023/06/29 10:45:42;;;;;;;8.47;7.57;;;29.60;48.60;;;;;;5051733;28;20471;-84
2023/06/29 10:48:22;;;;;;;9.73;7.20;;;29.60;48.60;;;;;;5048547;28;20474;-84
2023/06/29 10:51:10;;;;;;;11.27;7.30;;;29.60;48.60;;;;;;5052950;28;20462;-85
2023/06/29 10:53:42;;;;;;;8.37;7.53;;;29.60;48.50;;;;;;5053787;28;20442;-84
2023/06/29 10:56:43;;;;;;;8.43;7.00;;;29.60;48.50;;;;;;5052113;28;20512;-85
2023/06/29 10:59:14;;;;;;;10.07;8.23;;;29.60;48.70;;;;;;5058436;28;20441;-85
2023/06/29 11:01:43;;;;;;;9.43;7.50;;;29.60;48.50;;;;;;5052495;28;20504;-84
2023/06/29 11:04:13;;;;;;;9.80;7.27;;;29.60;48.60;;;;;;5046270;28;20454;-86
2023/06/29 11:06:44;;;;;;;7.90;7.20;;;29.60;48.60;;;;;;5047960;28;20447;-86
2023/06/29 11:09:13;;;;;;;13.30;7.57;;;29.60;48.70;;;;;;5052421;28;20474;-86
2023/06/29 11:19:21;;;;;;;11.37;8.27;;;29.70;49.00;;;;;;5094788;28;20441;-85
2023/06/29 11:26:10;;;;;;;10.63;8.07;;;29.70;49.00;;;;;;5086286;28;20427;-84
2023/06/29 11:28:53;;;;;;;10.90;8.00;;;29.80;48.70;;;;;;5092469;28;20474;-85
2023/06/29 11:31:29;;;;;;;10.50;8.07;;;29.80;48.80;;;;;;5078810;28;20416;-85
2023/06/29 11:34:06;;;;;;;12.83;8.30;;;29.80;48.70;;;;;;5093912;28;20449;-85
2023/06/29 11:36:46;;;;;;;11.37;7.97;;;29.90;48.70;;;;;;5098808;28;20441;-84
2023/06/29 11:39:32;;;;;;;9.97;7.70;;;29.90;48.70;;;;;;5092616;28;20449;-85
2023/06/29 11:54:17;;;;;;;10.77;8.03;;;30.30;48.70;;;;;;4987121;28;20489;-84
2023/06/29 12:03:40;;;;;;;10.90;8.13;;;30.40;48.40;;;;;;5039591;28;20430;-87
2023/06/29 12:06:18;;;;;;;10.13;7.90;;;30.40;48.40;;;;;;5116682;22;20455;-87
2023/06/29 12:08:52;;;;;;;10.60;8.70;;;30.50;48.40;;;;;;5080924;28;20464;-85
2023/06/29 12:11:27;;;;;;;10.37;7.70;;;30.50;48.30;;;;;;5081965;28;20487;-84
2023/06/29 12:14:02;;;;;;;12.90;7.77;;;30.50;48.30;;;;;;5074830;28;20450;-83
2023/06/29 12:16:39;;;;;;;11.90;8.80;;;30.50;48.40;;;;;;5066811;28;20454;-83
2023/06/29 12:19:32;;;;;;;10.53;8.30;;;30.50;48.30;;;;;;5069131;28;20438;-82
2023/06/29 12:22:45;;;;;;;10.60;8.43;;;30.50;48.40;;;;;;5072564;28;20433;-84
2023/06/29 12:25:19;;;;;;;11.27;8.97;;;30.60;48.40;;;;;;5089264;28;20471;-82
2023/06/29 12:27:49;;;;;;;14.10;9.27;;;30.70;48.30;;;;;;5086940;28;20420;-83
2023/06/29 12:30:21;;;;;;;10.93;8.80;;;30.70;48.30;;;;;;5083890;28;20470;-83
2023/06/29 12:36:18;;;;;;;12.43;8.90;;;30.70;48.50;;;;;;4969544;28;20462;-83
2023/06/29 12:38:49;;;;;;;11.70;8.97;;;30.80;48.30;;;;;;5069281;28;20543;-83
2023/06/29 12:41:18;;;;;;;15.43;8.00;;;30.80;48.30;;;;;;5085227;28;20468;-81
2023/06/29 12:43:50;;;;;;;11.23;8.63;;;30.80;48.20;;;;;;5063868;28;20450;-83
2023/06/29 12:46:26;;;;;;;13.70;9.20;;;30.80;48.30;;;;;;5059946;28;20460;-81
2023/06/29 12:48:55;;;;;;;14.23;9.57;;;30.80;48.30;;;;;;5073354;28;20544;-81
2023/06/29 12:51:32;;;;;;;10.10;9.10;;;30.70;48.40;;;;;;5062829;28;20451;-83
2023/06/29 13:03:39;;;;;;;19.00;9.30;;;30.50;48.80;;;;;;4957785;28;20530;-82
2023/06/29 13:06:09;;;;;;;13.37;8.87;;;30.50;48.70;;;;;;4974998;28;20468;-82
2023/06/29 13:08:47;;;;;;;13.33;9.07;;;30.40;48.80;;;;;;4999334;28;20506;-85
2023/06/29 13:11:48;;;;;;;9.50;8.53;;;30.40;48.80;;;;;;5004780;28;20433;-83
2023/06/29 13:17:06;;;;;;;10.67;8.00;;;30.40;48.90;;;;;;4982783;28;20441;-83
2023/06/29 13:19:36;;;;;;;12.60;8.63;;;30.30;48.90;;;;;;4978812;28;20442;-82
2023/06/29 13:22:04;;;;;;;14.47;10.20;;;30.30;48.90;;;;;;4969284;28;20497;-82
2023/06/29 13:24:35;;;;;;;11.10;8.33;;;30.30;48.90;;;;;;4972785;28;20474;-84
2023/06/29 13:27:04;;;;;;;11.80;8.67;;;30.30;49.00;;;;;;4972158;28;20497;-83
2023/06/29 13:29:39;;;;;;;11.33;8.70;;;30.20;49.00;;;;;;4979158;28;20555;-83
2023/06/29 13:32:08;;;;;;;10.37;8.57;;;30.30;49.10;;;;;;4979220;28;20469;-83
2023/06/29 13:34:38;;;;;;;18.53;9.20;;;30.30;49.00;;;;;;4979214;28;20472;-83
2023/06/29 13:37:06;;;;;;;10.20;8.70;;;30.30;49.00;;;;;;4973613;28;20447;-82
2023/06/29 13:39:36;;;;;;;10.80;8.30;;;30.20;49.00;;;;;;4977470;28;20458;-83
2023/06/29 13:42:37;;;;;;;11.23;8.63;;;30.20;49.00;;;;;;4970841;28;20525;-82
2023/06/29 13:45:19;;;;;;;10.47;8.37;;;30.20;49.10;;;;;;4972758;28;20448;-83
2023/06/29 13:48:00;;;;;;;12.60;9.23;;;30.20;48.90;;;;;;4979541;28;20457;-83
2023/06/29 13:50:32;;;;;;;9.90;8.90;;;30.30;49.00;;;;;;4979380;28;20477;-83
2023/06/29 13:53:14;;;;;;;13.77;9.57;;;30.30;48.80;;;;;;4984310;28;20461;-83
2023/06/29 13:55:43;;;;;;;12.63;9.20;;;30.30;48.80;;;;;;4976189;28;20469;-82
2023/06/29 13:58:24;;;;;;;9.43;8.40;;;30.30;48.70;;;;;;4975870;28;21033;-84
2023/06/29 14:01:13;;;;;;;11.13;8.30;;;30.30;48.80;;;;;;4966600;28;20421;-82
2023/06/29 14:03:41;;;;;;;10.13;8.67;;;30.40;48.90;;;;;;4975920;28;20450;-83
2023/06/29 14:06:12;;;;;;;10.97;8.63;;;30.40;48.70;;;;;;4977998;28;20470;-83
2023/06/29 14:08:40;;;;;;;12.93;9.03;;;30.40;48.70;;;;;;4978116;28;20443;-84